Terminal Aerodrome Forecast
Issued by NWS Cleveland, OH

Home | Current Version | Previous Version | Text Only | Print | Product List | Glossary Off
Versions: 1 2 3 4 5 6 7 8 9 10 11 12 13 14 15 16 17 18 19 20 21

092
FTUS41 KCLE 231731
TAFTOL
TAF
KTOL 231731Z 2318/2418 11010G20KT P6SM FEW250
     FM240500 10005KT 6SM -SHRA OVC030
     FM241000 09005KT P6SM VCSH OVC015=

USA.gov is the U.S. government's official web portal to all federal, state and local government web resources and services.